Unser Platzwetter:
(um das Bild zu aktualisieren oder bei unvollständig geladenem Bild den Reload-Button des Browsers drücken)

 

 
[Quelle: ADDS]
METAR
ETNN 211520Z 20006KT 9999 BKN035 SCT240 14/08 Q1019 BLU BLU+ TEMPO BLU =
AMD ETNN 211545Z 2114/2123 22010G20KT 9999 NSW SCT030 BKN270 BECMG 2117/2119 18006KT 9999 NSW SCT030 BKN240 CANCEL 1620 BY ETGL
TAF
AMD ETNN 211545Z 2114/2123 22010G20KT 9999 NSW SCT030 BKN270 BECMG 2117/2119 18006KT 9999 NSW SCT030 BKN240 CANCEL 1620 BY ETGL =
SR / SS: 06:05 / 16:29 UTC (Vettweiss-Soller 2019-10-21)
 

Hier gibt es ein Wetterdiagramm der letzten 7 Tage.

Hier geht es zu unserer Webcam.

Satelitenbild:

aktuelles Meteosat-Bild von www.wetterzentrale.de